sensor_id;sensor_type;location;lat;lon;timestamp;P1;durP1;ratioP1;P2;durP2;ratioP2
18693;SDS011;9477;51.414;10.362;2022-12-11T00:00:26;39.83;;;18.90;;
18693;SDS011;9477;51.414;10.362;2022-12-11T00:02:29;37.20;;;16.93;;
18693;SDS011;9477;51.414;10.362;2022-12-11T00:04:32;41.20;;;19.10;;
18693;SDS011;9477;51.414;10.362;2022-12-11T00:06:36;42.53;;;19.03;;
18693;SDS011;9477;51.414;10.362;2022-12-11T00:08:39;44.63;;;20.23;;
18693;SDS011;9477;51.414;10.362;2022-12-11T00:10:46;39.97;;;19.00;;
18693;SDS011;9477;51.414;10.362;2022-12-11T00:12:49;44.40;;;21.00;;
18693;SDS011;9477;51.414;10.362;2022-12-11T00:14:52;45.93;;;21.53;;
18693;SDS011;9477;51.414;10.362;2022-12-11T00:16:55;42.40;;;20.07;;
18693;SDS011;9477;51.414;10.362;2022-12-11T00:18:58;41.20;;;20.97;;
18693;SDS011;9477;51.414;10.362;2022-12-11T00:21:01;48.03;;;21.67;;
18693;SDS011;9477;51.414;10.362;2022-12-11T00:23:07;45.63;;;21.73;;
18693;SDS011;9477;51.414;10.362;2022-12-11T00:25:10;51.97;;;23.17;;
18693;SDS011;9477;51.414;10.362;2022-12-11T00:27:13;44.63;;;21.17;;
18693;SDS011;9477;51.414;10.362;2022-12-11T00:29:16;50.83;;;22.70;;
18693;SDS011;9477;51.414;10.362;2022-12-11T00:31:20;44.17;;;21.77;;
18693;SDS011;9477;51.414;10.362;2022-12-11T00:33:24;39.07;;;18.20;;
18693;SDS011;9477;51.414;10.362;2022-12-11T00:35:28;41.17;;;16.77;;
18693;SDS011;9477;51.414;10.362;2022-12-11T00:37:30;45.53;;;21.10;;
18693;SDS011;9477;51.414;10.362;2022-12-11T00:39:35;50.10;;;22.33;;
18693;SDS011;9477;51.414;10.362;2022-12-11T00:41:39;48.53;;;22.17;;
18693;SDS011;9477;51.414;10.362;2022-12-11T00:43:42;50.40;;;22.43;;
18693;SDS011;9477;51.414;10.362;2022-12-11T00:45:46;48.70;;;21.70;;
18693;SDS011;9477;51.414;10.362;2022-12-11T00:47:49;48.50;;;22.70;;
18693;SDS011;9477;51.414;10.362;2022-12-11T00:49:52;44.17;;;21.63;;
18693;SDS011;9477;51.414;10.362;2022-12-11T00:51:55;45.53;;;21.73;;
18693;SDS011;9477;51.414;10.362;2022-12-11T00:53:57;44.50;;;20.93;;
18693;SDS011;9477;51.414;10.362;2022-12-11T00:56:07;48.73;;;22.43;;
18693;SDS011;9477;51.414;10.362;2022-12-11T00:58:11;47.57;;;22.60;;
18693;SDS011;9477;51.414;10.362;2022-12-11T01:00:14;40.37;;;19.93;;
18693;SDS011;9477;51.414;10.362;2022-12-11T01:02:17;39.57;;;20.53;;
18693;SDS011;9477;51.414;10.362;2022-12-11T01:04:20;42.40;;;21.57;;
18693;SDS011;9477;51.414;10.362;2022-12-11T01:06:24;49.17;;;21.70;;
18693;SDS011;9477;51.414;10.362;2022-12-11T01:08:28;44.27;;;21.57;;
18693;SDS011;9477;51.414;10.362;2022-12-11T01:10:38;42.00;;;20.50;;
18693;SDS011;9477;51.414;10.362;2022-12-11T01:12:41;41.47;;;20.50;;
18693;SDS011;9477;51.414;10.362;2022-12-11T01:14:44;41.97;;;20.10;;
18693;SDS011;9477;51.414;10.362;2022-12-11T01:16:47;42.50;;;20.87;;
18693;SDS011;9477;51.414;10.362;2022-12-11T01:18:50;40.33;;;19.83;;
18693;SDS011;9477;51.414;10.362;2022-12-11T01:20:53;46.50;;;20.03;;
18693;SDS011;9477;51.414;10.362;2022-12-11T01:22:57;42.50;;;19.43;;
18693;SDS011;9477;51.414;10.362;2022-12-11T01:25:01;36.47;;;19.17;;
18693;SDS011;9477;51.414;10.362;2022-12-11T01:27:05;36.93;;;18.50;;
18693;SDS011;9477;51.414;10.362;2022-12-11T01:29:10;40.70;;;18.83;;
18693;SDS011;9477;51.414;10.362;2022-12-11T01:31:14;36.60;;;18.13;;
18693;SDS011;9477;51.414;10.362;2022-12-11T01:33:19;37.77;;;18.57;;
18693;SDS011;9477;51.414;10.362;2022-12-11T01:35:21;31.20;;;17.33;;
18693;SDS011;9477;51.414;10.362;2022-12-11T01:37:24;40.50;;;18.50;;
18693;SDS011;9477;51.414;10.362;2022-12-11T01:39:27;41.77;;;20.30;;
18693;SDS011;9477;51.414;10.362;2022-12-11T01:41:30;39.67;;;18.77;;
18693;SDS011;9477;51.414;10.362;2022-12-11T01:43:33;36.63;;;18.03;;
18693;SDS011;9477;51.414;10.362;2022-12-11T01:45:39;38.30;;;19.23;;
18693;SDS011;9477;51.414;10.362;2022-12-11T01:47:45;36.07;;;19.00;;
18693;SDS011;9477;51.414;10.362;2022-12-11T01:49:48;34.83;;;18.33;;
18693;SDS011;9477;51.414;10.362;2022-12-11T01:51:54;37.50;;;18.40;;
18693;SDS011;9477;51.414;10.362;2022-12-11T01:54:01;36.67;;;16.87;;
18693;SDS011;9477;51.414;10.362;2022-12-11T01:56:08;35.93;;;17.10;;
18693;SDS011;9477;51.414;10.362;2022-12-11T01:58:12;33.67;;;16.17;;
18693;SDS011;9477;51.414;10.362;2022-12-11T02:00:16;30.53;;;15.77;;
18693;SDS011;9477;51.414;10.362;2022-12-11T02:02:23;37.60;;;17.93;;
18693;SDS011;9477;51.414;10.362;2022-12-11T02:04:29;30.93;;;17.00;;
18693;SDS011;9477;51.414;10.362;2022-12-11T02:06:34;34.87;;;18.17;;
18693;SDS011;9477;51.414;10.362;2022-12-11T02:08:38;33.47;;;18.37;;
18693;SDS011;9477;51.414;10.362;2022-12-11T02:10:43;36.03;;;17.70;;
18693;SDS011;9477;51.414;10.362;2022-12-11T02:12:53;32.93;;;17.37;;
18693;SDS011;9477;51.414;10.362;2022-12-11T02:15:04;31.40;;;17.23;;
18693;SDS011;9477;51.414;10.362;2022-12-11T02:17:14;35.80;;;17.60;;
18693;SDS011;9477;51.414;10.362;2022-12-11T02:19:33;30.87;;;15.63;;
18693;SDS011;9477;51.414;10.362;2022-12-11T02:21:54;27.30;;;15.03;;
18693;SDS011;9477;51.414;10.362;2022-12-11T02:24:00;27.43;;;14.53;;
18693;SDS011;9477;51.414;10.362;2022-12-11T02:26:22;28.03;;;14.97;;
18693;SDS011;9477;51.414;10.362;2022-12-11T02:28:42;28.23;;;14.40;;
18693;SDS011;9477;51.414;10.362;2022-12-11T02:30:49;30.47;;;15.83;;
18693;SDS011;9477;51.414;10.362;2022-12-11T02:32:57;26.63;;;14.67;;
18693;SDS011;9477;51.414;10.362;2022-12-11T02:35:02;27.37;;;14.27;;
18693;SDS011;9477;51.414;10.362;2022-12-11T02:37:11;29.47;;;14.30;;
18693;SDS011;9477;51.414;10.362;2022-12-11T02:39:20;28.80;;;14.57;;
18693;SDS011;9477;51.414;10.362;2022-12-11T02:41:24;30.00;;;14.50;;
18693;SDS011;9477;51.414;10.362;2022-12-11T02:43:29;24.30;;;13.70;;
18693;SDS011;9477;51.414;10.362;2022-12-11T02:45:34;24.63;;;13.33;;
18693;SDS011;9477;51.414;10.362;2022-12-11T02:47:41;27.47;;;13.90;;
18693;SDS011;9477;51.414;10.362;2022-12-11T02:49:48;26.43;;;14.27;;
18693;SDS011;9477;51.414;10.362;2022-12-11T02:51:52;23.63;;;13.07;;
18693;SDS011;9477;51.414;10.362;2022-12-11T02:53:57;26.03;;;13.83;;
18693;SDS011;9477;51.414;10.362;2022-12-11T02:56:03;27.37;;;14.70;;
18693;SDS011;9477;51.414;10.362;2022-12-11T02:58:12;26.00;;;13.47;;
18693;SDS011;9477;51.414;10.362;2022-12-11T03:00:18;24.10;;;13.43;;
18693;SDS011;9477;51.414;10.362;2022-12-11T03:02:23;23.03;;;11.87;;
18693;SDS011;9477;51.414;10.362;2022-12-11T03:04:26;24.10;;;13.80;;
18693;SDS011;9477;51.414;10.362;2022-12-11T03:06:31;25.27;;;13.40;;
18693;SDS011;9477;51.414;10.362;2022-12-11T03:08:37;21.83;;;13.20;;
18693;SDS011;9477;51.414;10.362;2022-12-11T03:10:40;19.90;;;11.60;;
18693;SDS011;9477;51.414;10.362;2022-12-11T03:12:44;20.20;;;12.13;;
18693;SDS011;9477;51.414;10.362;2022-12-11T03:14:54;21.30;;;10.93;;
18693;SDS011;9477;51.414;10.362;2022-12-11T03:17:02;18.77;;;10.17;;
18693;SDS011;9477;51.414;10.362;2022-12-11T03:19:12;15.47;;;9.37;;
18693;SDS011;9477;51.414;10.362;2022-12-11T03:21:23;17.23;;;9.90;;
18693;SDS011;9477;51.414;10.362;2022-12-11T03:23:30;19.97;;;11.00;;
18693;SDS011;9477;51.414;10.362;2022-12-11T03:25:41;16.03;;;9.43;;
18693;SDS011;9477;51.414;10.362;2022-12-11T03:27:52;16.70;;;9.17;;
18693;SDS011;9477;51.414;10.362;2022-12-11T03:29:59;17.70;;;9.83;;
18693;SDS011;9477;51.414;10.362;2022-12-11T03:32:06;16.30;;;9.67;;
18693;SDS011;9477;51.414;10.362;2022-12-11T03:34:15;14.90;;;9.33;;
18693;SDS011;9477;51.414;10.362;2022-12-11T03:36:25;10.43;;;6.33;;
18693;SDS011;9477;51.414;10.362;2022-12-11T03:38:32;13.10;;;7.00;;
18693;SDS011;9477;51.414;10.362;2022-12-11T03:40:38;13.37;;;7.57;;
18693;SDS011;9477;51.414;10.362;2022-12-11T03:42:43;13.03;;;7.27;;
18693;SDS011;9477;51.414;10.362;2022-12-11T03:44:50;11.70;;;6.90;;
18693;SDS011;9477;51.414;10.362;2022-12-11T03:46:56;14.03;;;8.20;;
18693;SDS011;9477;51.414;10.362;2022-12-11T03:49:02;12.90;;;7.67;;
18693;SDS011;9477;51.414;10.362;2022-12-11T03:51:09;11.23;;;6.80;;
18693;SDS011;9477;51.414;10.362;2022-12-11T03:53:13;11.87;;;7.10;;
18693;SDS011;9477;51.414;10.362;2022-12-11T03:55:17;14.33;;;8.00;;
18693;SDS011;9477;51.414;10.362;2022-12-11T03:57:23;15.07;;;8.93;;
18693;SDS011;9477;51.414;10.362;2022-12-11T03:59:30;13.20;;;8.37;;
18693;SDS011;9477;51.414;10.362;2022-12-11T04:01:33;12.70;;;8.43;;
18693;SDS011;9477;51.414;10.362;2022-12-11T04:03:36;15.97;;;8.60;;
18693;SDS011;9477;51.414;10.362;2022-12-11T04:05:40;11.73;;;7.53;;
18693;SDS011;9477;51.414;10.362;2022-12-11T04:07:45;12.47;;;8.50;;
18693;SDS011;9477;51.414;10.362;2022-12-11T04:09:48;15.83;;;9.07;;
18693;SDS011;9477;51.414;10.362;2022-12-11T04:11:50;13.97;;;7.97;;
18693;SDS011;9477;51.414;10.362;2022-12-11T04:13:53;14.97;;;8.50;;
18693;SDS011;9477;51.414;10.362;2022-12-11T04:16:10;13.57;;;8.63;;
18693;SDS011;9477;51.414;10.362;2022-12-11T04:18:13;14.87;;;8.67;;
18693;SDS011;9477;51.414;10.362;2022-12-11T04:20:39;15.10;;;9.03;;
18693;SDS011;9477;51.414;10.362;2022-12-11T04:23:01;15.07;;;8.67;;
18693;SDS011;9477;51.414;10.362;2022-12-11T04:25:22;12.97;;;8.50;;
18693;SDS011;9477;51.414;10.362;2022-12-11T04:27:25;16.50;;;9.60;;
18693;SDS011;9477;51.414;10.362;2022-12-11T04:29:46;15.10;;;9.17;;
18693;SDS011;9477;51.414;10.362;2022-12-11T04:31:49;14.33;;;9.23;;
18693;SDS011;9477;51.414;10.362;2022-12-11T04:33:52;16.93;;;10.10;;
18693;SDS011;9477;51.414;10.362;2022-12-11T04:35:56;17.23;;;10.13;;
18693;SDS011;9477;51.414;10.362;2022-12-11T04:38:01;17.97;;;10.57;;
18693;SDS011;9477;51.414;10.362;2022-12-11T04:40:05;18.20;;;10.40;;
18693;SDS011;9477;51.414;10.362;2022-12-11T04:42:09;17.17;;;9.87;;
18693;SDS011;9477;51.414;10.362;2022-12-11T04:44:12;19.80;;;10.53;;
18693;SDS011;9477;51.414;10.362;2022-12-11T04:46:16;17.03;;;10.50;;
18693;SDS011;9477;51.414;10.362;2022-12-11T04:48:21;19.03;;;10.73;;
18693;SDS011;9477;51.414;10.362;2022-12-11T04:50:24;17.37;;;10.43;;
18693;SDS011;9477;51.414;10.362;2022-12-11T04:52:27;19.87;;;10.40;;
18693;SDS011;9477;51.414;10.362;2022-12-11T04:54:31;17.60;;;10.90;;
18693;SDS011;9477;51.414;10.362;2022-12-11T04:56:34;18.03;;;11.10;;
18693;SDS011;9477;51.414;10.362;2022-12-11T04:58:37;17.03;;;10.27;;
18693;SDS011;9477;51.414;10.362;2022-12-11T05:00:40;17.33;;;9.97;;
18693;SDS011;9477;51.414;10.362;2022-12-11T05:02:43;16.70;;;9.57;;
18693;SDS011;9477;51.414;10.362;2022-12-11T05:04:46;17.43;;;11.00;;
18693;SDS011;9477;51.414;10.362;2022-12-11T05:06:49;18.07;;;10.00;;
18693;SDS011;9477;51.414;10.362;2022-12-11T05:08:52;21.07;;;11.80;;
18693;SDS011;9477;51.414;10.362;2022-12-11T05:10:56;19.13;;;11.17;;
18693;SDS011;9477;51.414;10.362;2022-12-11T05:13:00;19.03;;;11.00;;
18693;SDS011;9477;51.414;10.362;2022-12-11T05:15:03;16.47;;;10.27;;
18693;SDS011;9477;51.414;10.362;2022-12-11T05:17:06;17.87;;;11.13;;
18693;SDS011;9477;51.414;10.362;2022-12-11T05:19:09;19.30;;;10.77;;
18693;SDS011;9477;51.414;10.362;2022-12-11T05:21:12;20.60;;;11.83;;
18693;SDS011;9477;51.414;10.362;2022-12-11T05:23:16;19.07;;;10.47;;
18693;SDS011;9477;51.414;10.362;2022-12-11T05:25:19;20.47;;;11.17;;
18693;SDS011;9477;51.414;10.362;2022-12-11T05:27:23;19.00;;;11.33;;
18693;SDS011;9477;51.414;10.362;2022-12-11T05:29:26;19.73;;;10.97;;
18693;SDS011;9477;51.414;10.362;2022-12-11T05:31:29;20.43;;;11.53;;
18693;SDS011;9477;51.414;10.362;2022-12-11T05:33:32;20.53;;;11.60;;
18693;SDS011;9477;51.414;10.362;2022-12-11T05:35:35;19.37;;;12.60;;
18693;SDS011;9477;51.414;10.362;2022-12-11T05:37:38;19.80;;;12.00;;
18693;SDS011;9477;51.414;10.362;2022-12-11T05:39:41;17.90;;;11.10;;
18693;SDS011;9477;51.414;10.362;2022-12-11T05:41:44;21.20;;;11.63;;
18693;SDS011;9477;51.414;10.362;2022-12-11T05:43:48;17.43;;;11.10;;
18693;SDS011;9477;51.414;10.362;2022-12-11T05:45:51;17.13;;;10.67;;
18693;SDS011;9477;51.414;10.362;2022-12-11T05:47:54;18.33;;;10.93;;
18693;SDS011;9477;51.414;10.362;2022-12-11T05:49:56;21.67;;;12.20;;
18693;SDS011;9477;51.414;10.362;2022-12-11T05:51:59;17.77;;;11.53;;
18693;SDS011;9477;51.414;10.362;2022-12-11T05:54:02;19.47;;;11.40;;
18693;SDS011;9477;51.414;10.362;2022-12-11T05:56:07;17.00;;;9.90;;
18693;SDS011;9477;51.414;10.362;2022-12-11T05:58:12;18.40;;;10.10;;
18693;SDS011;9477;51.414;10.362;2022-12-11T06:00:16;16.07;;;8.97;;
18693;SDS011;9477;51.414;10.362;2022-12-11T06:02:19;15.97;;;9.50;;
18693;SDS011;9477;51.414;10.362;2022-12-11T06:04:22;17.87;;;11.30;;
18693;SDS011;9477;51.414;10.362;2022-12-11T06:06:26;17.23;;;10.93;;
18693;SDS011;9477;51.414;10.362;2022-12-11T06:08:29;20.57;;;12.17;;
18693;SDS011;9477;51.414;10.362;2022-12-11T06:10:33;18.60;;;10.70;;
18693;SDS011;9477;51.414;10.362;2022-12-11T06:12:36;19.00;;;10.93;;
18693;SDS011;9477;51.414;10.362;2022-12-11T06:14:38;21.37;;;12.30;;
18693;SDS011;9477;51.414;10.362;2022-12-11T06:16:43;21.20;;;12.37;;
18693;SDS011;9477;51.414;10.362;2022-12-11T06:18:46;20.57;;;12.17;;
18693;SDS011;9477;51.414;10.362;2022-12-11T06:20:49;21.63;;;13.23;;
18693;SDS011;9477;51.414;10.362;2022-12-11T06:22:52;133.90;;;54.97;;
18693;SDS011;9477;51.414;10.362;2022-12-11T06:24:55;38.13;;;19.67;;
18693;SDS011;9477;51.414;10.362;2022-12-11T06:26:58;106.80;;;34.33;;
18693;SDS011;9477;51.414;10.362;2022-12-11T06:29:00;39.33;;;16.63;;
18693;SDS011;9477;51.414;10.362;2022-12-11T06:31:09;28.33;;;15.13;;
18693;SDS011;9477;51.414;10.362;2022-12-11T06:33:13;28.57;;;14.10;;
18693;SDS011;9477;51.414;10.362;2022-12-11T06:35:16;60.83;;;24.77;;
18693;SDS011;9477;51.414;10.362;2022-12-11T06:37:20;26.20;;;14.23;;
18693;SDS011;9477;51.414;10.362;2022-12-11T06:39:23;23.53;;;13.70;;
18693;SDS011;9477;51.414;10.362;2022-12-11T06:41:26;21.13;;;12.40;;
18693;SDS011;9477;51.414;10.362;2022-12-11T06:43:28;20.80;;;12.20;;
18693;SDS011;9477;51.414;10.362;2022-12-11T06:45:31;21.83;;;12.20;;
18693;SDS011;9477;51.414;10.362;2022-12-11T06:47:34;23.00;;;12.90;;
18693;SDS011;9477;51.414;10.362;2022-12-11T06:49:38;22.33;;;13.17;;
18693;SDS011;9477;51.414;10.362;2022-12-11T06:51:41;24.17;;;12.57;;
18693;SDS011;9477;51.414;10.362;2022-12-11T06:53:44;20.90;;;12.17;;
18693;SDS011;9477;51.414;10.362;2022-12-11T06:55:52;22.03;;;12.77;;
18693;SDS011;9477;51.414;10.362;2022-12-11T06:57:55;21.60;;;12.87;;
18693;SDS011;9477;51.414;10.362;2022-12-11T06:59:58;20.33;;;12.43;;
18693;SDS011;9477;51.414;10.362;2022-12-11T07:02:00;23.17;;;12.93;;
18693;SDS011;9477;51.414;10.362;2022-12-11T07:04:04;25.27;;;12.73;;
18693;SDS011;9477;51.414;10.362;2022-12-11T07:06:08;24.30;;;13.07;;
18693;SDS011;9477;51.414;10.362;2022-12-11T07:08:11;21.17;;;12.67;;
18693;SDS011;9477;51.414;10.362;2022-12-11T07:10:14;20.63;;;11.60;;
18693;SDS011;9477;51.414;10.362;2022-12-11T07:12:17;18.67;;;9.97;;
18693;SDS011;9477;51.414;10.362;2022-12-11T07:14:20;16.53;;;9.83;;
18693;SDS011;9477;51.414;10.362;2022-12-11T07:16:23;15.27;;;9.80;;
18693;SDS011;9477;51.414;10.362;2022-12-11T07:18:26;18.13;;;10.60;;
18693;SDS011;9477;51.414;10.362;2022-12-11T07:20:29;15.17;;;9.37;;
18693;SDS011;9477;51.414;10.362;2022-12-11T07:22:33;18.47;;;9.20;;
18693;SDS011;9477;51.414;10.362;2022-12-11T07:24:41;18.23;;;9.80;;
18693;SDS011;9477;51.414;10.362;2022-12-11T07:26:44;17.23;;;9.50;;
18693;SDS011;9477;51.414;10.362;2022-12-11T07:28:47;16.17;;;10.03;;
18693;SDS011;9477;51.414;10.362;2022-12-11T07:30:50;18.83;;;10.43;;
18693;SDS011;9477;51.414;10.362;2022-12-11T07:32:53;18.93;;;11.07;;
18693;SDS011;9477;51.414;10.362;2022-12-11T07:34:56;17.27;;;10.77;;
18693;SDS011;9477;51.414;10.362;2022-12-11T07:36:59;17.70;;;10.23;;
18693;SDS011;9477;51.414;10.362;2022-12-11T07:39:03;19.43;;;10.40;;
18693;SDS011;9477;51.414;10.362;2022-12-11T07:41:08;21.53;;;11.77;;
18693;SDS011;9477;51.414;10.362;2022-12-11T07:43:14;20.97;;;11.60;;
18693;SDS011;9477;51.414;10.362;2022-12-11T07:45:17;19.37;;;11.33;;
18693;SDS011;9477;51.414;10.362;2022-12-11T07:47:20;17.00;;;9.93;;
18693;SDS011;9477;51.414;10.362;2022-12-11T07:49:23;20.00;;;10.37;;
18693;SDS011;9477;51.414;10.362;2022-12-11T07:51:27;14.20;;;9.17;;
18693;SDS011;9477;51.414;10.362;2022-12-11T07:53:31;16.70;;;9.80;;
18693;SDS011;9477;51.414;10.362;2022-12-11T07:55:35;15.83;;;9.17;;
18693;SDS011;9477;51.414;10.362;2022-12-11T07:57:38;15.87;;;9.33;;
18693;SDS011;9477;51.414;10.362;2022-12-11T07:59:41;19.73;;;9.50;;
18693;SDS011;9477;51.414;10.362;2022-12-11T08:01:44;17.00;;;9.37;;
18693;SDS011;9477;51.414;10.362;2022-12-11T08:03:47;15.40;;;9.37;;
18693;SDS011;9477;51.414;10.362;2022-12-11T08:05:51;18.00;;;9.63;;
18693;SDS011;9477;51.414;10.362;2022-12-11T08:07:54;16.83;;;9.70;;
18693;SDS011;9477;51.414;10.362;2022-12-11T08:09:57;19.17;;;10.73;;
18693;SDS011;9477;51.414;10.362;2022-12-11T08:12:01;16.07;;;9.50;;
18693;SDS011;9477;51.414;10.362;2022-12-11T08:14:04;17.47;;;10.37;;
18693;SDS011;9477;51.414;10.362;2022-12-11T08:16:09;19.00;;;10.70;;
18693;SDS011;9477;51.414;10.362;2022-12-11T08:18:13;19.07;;;10.23;;
18693;SDS011;9477;51.414;10.362;2022-12-11T08:20:16;17.73;;;10.20;;
18693;SDS011;9477;51.414;10.362;2022-12-11T08:22:19;16.77;;;10.30;;
18693;SDS011;9477;51.414;10.362;2022-12-11T08:24:22;19.27;;;10.77;;
18693;SDS011;9477;51.414;10.362;2022-12-11T08:26:25;24.10;;;10.83;;
18693;SDS011;9477;51.414;10.362;2022-12-11T08:28:31;21.67;;;11.43;;
18693;SDS011;9477;51.414;10.362;2022-12-11T08:30:37;18.20;;;10.93;;
18693;SDS011;9477;51.414;10.362;2022-12-11T08:32:40;18.00;;;10.67;;
18693;SDS011;9477;51.414;10.362;2022-12-11T08:34:43;18.53;;;10.90;;
18693;SDS011;9477;51.414;10.362;2022-12-11T08:36:46;21.23;;;11.47;;
18693;SDS011;9477;51.414;10.362;2022-12-11T08:38:49;18.50;;;10.20;;
18693;SDS011;9477;51.414;10.362;2022-12-11T08:40:52;18.67;;;10.57;;
18693;SDS011;9477;51.414;10.362;2022-12-11T08:42:55;18.87;;;10.83;;
18693;SDS011;9477;51.414;10.362;2022-12-11T08:45:00;16.57;;;9.97;;
18693;SDS011;9477;51.414;10.362;2022-12-11T08:47:03;17.50;;;9.87;;
18693;SDS011;9477;51.414;10.362;2022-12-11T08:49:09;18.77;;;9.90;;
18693;SDS011;9477;51.414;10.362;2022-12-11T08:51:13;19.03;;;10.77;;
18693;SDS011;9477;51.414;10.362;2022-12-11T08:53:18;17.17;;;9.80;;
18693;SDS011;9477;51.414;10.362;2022-12-11T08:55:20;14.47;;;9.43;;
18693;SDS011;9477;51.414;10.362;2022-12-11T08:57:23;15.63;;;9.90;;
18693;SDS011;9477;51.414;10.362;2022-12-11T08:59:26;21.27;;;11.13;;
18693;SDS011;9477;51.414;10.362;2022-12-11T09:01:30;16.70;;;10.17;;
18693;SDS011;9477;51.414;10.362;2022-12-11T09:03:33;17.30;;;10.50;;
18693;SDS011;9477;51.414;10.362;2022-12-11T09:05:37;16.80;;;10.17;;
18693;SDS011;9477;51.414;10.362;2022-12-11T09:07:40;20.63;;;11.90;;
18693;SDS011;9477;51.414;10.362;2022-12-11T09:09:43;20.73;;;11.83;;
18693;SDS011;9477;51.414;10.362;2022-12-11T09:11:46;25.50;;;13.37;;
18693;SDS011;9477;51.414;10.362;2022-12-11T09:13:50;25.13;;;12.23;;
18693;SDS011;9477;51.414;10.362;2022-12-11T09:15:53;25.37;;;13.30;;
18693;SDS011;9477;51.414;10.362;2022-12-11T09:17:57;21.07;;;11.70;;
18693;SDS011;9477;51.414;10.362;2022-12-11T09:20:00;19.93;;;10.43;;
18693;SDS011;9477;51.414;10.362;2022-12-11T09:22:03;17.33;;;9.97;;
18693;SDS011;9477;51.414;10.362;2022-12-11T09:24:06;19.83;;;10.83;;
18693;SDS011;9477;51.414;10.362;2022-12-11T09:26:11;22.07;;;12.00;;
18693;SDS011;9477;51.414;10.362;2022-12-11T09:28:15;20.77;;;11.33;;
18693;SDS011;9477;51.414;10.362;2022-12-11T09:30:18;17.43;;;10.33;;
18693;SDS011;9477;51.414;10.362;2022-12-11T09:32:20;17.57;;;10.57;;
18693;SDS011;9477;51.414;10.362;2022-12-11T09:34:25;17.07;;;10.10;;
18693;SDS011;9477;51.414;10.362;2022-12-11T09:36:30;20.23;;;11.10;;
18693;SDS011;9477;51.414;10.362;2022-12-11T09:38:33;19.37;;;10.77;;
18693;SDS011;9477;51.414;10.362;2022-12-11T09:40:38;23.47;;;11.90;;
18693;SDS011;9477;51.414;10.362;2022-12-11T09:42:46;18.33;;;10.73;;
18693;SDS011;9477;51.414;10.362;2022-12-11T09:44:54;17.97;;;10.50;;
18693;SDS011;9477;51.414;10.362;2022-12-11T09:47:00;19.33;;;11.03;;
18693;SDS011;9477;51.414;10.362;2022-12-11T09:49:03;20.40;;;11.70;;
18693;SDS011;9477;51.414;10.362;2022-12-11T09:51:16;18.90;;;10.53;;
18693;SDS011;9477;51.414;10.362;2022-12-11T09:53:25;21.97;;;12.00;;
18693;SDS011;9477;51.414;10.362;2022-12-11T09:55:42;17.93;;;11.23;;
18693;SDS011;9477;51.414;10.362;2022-12-11T09:57:53;20.50;;;11.23;;
18693;SDS011;9477;51.414;10.362;2022-12-11T10:00:10;20.63;;;10.77;;
18693;SDS011;9477;51.414;10.362;2022-12-11T10:02:23;20.30;;;11.73;;
18693;SDS011;9477;51.414;10.362;2022-12-11T10:04:35;18.47;;;10.30;;
18693;SDS011;9477;51.414;10.362;2022-12-11T10:06:49;17.67;;;11.07;;
18693;SDS011;9477;51.414;10.362;2022-12-11T10:09:04;19.20;;;10.93;;
18693;SDS011;9477;51.414;10.362;2022-12-11T10:11:21;17.40;;;10.87;;
18693;SDS011;9477;51.414;10.362;2022-12-11T10:13:41;17.83;;;11.00;;
18693;SDS011;9477;51.414;10.362;2022-12-11T10:15:50;19.30;;;11.97;;
18693;SDS011;9477;51.414;10.362;2022-12-11T10:17:58;19.67;;;11.40;;
18693;SDS011;9477;51.414;10.362;2022-12-11T10:20:10;21.07;;;11.83;;
18693;SDS011;9477;51.414;10.362;2022-12-11T10:22:22;18.27;;;10.87;;
18693;SDS011;9477;51.414;10.362;2022-12-11T10:24:30;19.17;;;11.10;;
18693;SDS011;9477;51.414;10.362;2022-12-11T10:26:57;23.50;;;13.60;;
18693;SDS011;9477;51.414;10.362;2022-12-11T10:29:01;25.50;;;13.70;;
18693;SDS011;9477;51.414;10.362;2022-12-11T10:31:15;21.10;;;12.67;;
18693;SDS011;9477;51.414;10.362;2022-12-11T10:33:20;24.97;;;14.70;;
18693;SDS011;9477;51.414;10.362;2022-12-11T10:35:26;22.27;;;13.63;;
18693;SDS011;9477;51.414;10.362;2022-12-11T10:37:36;25.20;;;14.37;;
18693;SDS011;9477;51.414;10.362;2022-12-11T10:39:40;21.53;;;13.47;;
18693;SDS011;9477;51.414;10.362;2022-12-11T10:41:43;22.63;;;13.37;;
18693;SDS011;9477;51.414;10.362;2022-12-11T10:43:48;22.83;;;14.63;;
18693;SDS011;9477;51.414;10.362;2022-12-11T10:45:52;23.10;;;13.97;;
18693;SDS011;9477;51.414;10.362;2022-12-11T10:48:00;21.73;;;13.27;;
18693;SDS011;9477;51.414;10.362;2022-12-11T10:50:04;22.27;;;13.70;;
18693;SDS011;9477;51.414;10.362;2022-12-11T10:52:08;22.17;;;13.67;;
18693;SDS011;9477;51.414;10.362;2022-12-11T10:54:28;23.27;;;14.07;;
18693;SDS011;9477;51.414;10.362;2022-12-11T10:56:33;23.40;;;14.30;;
18693;SDS011;9477;51.414;10.362;2022-12-11T10:58:39;23.33;;;14.80;;
18693;SDS011;9477;51.414;10.362;2022-12-11T11:00:58;26.43;;;13.97;;
18693;SDS011;9477;51.414;10.362;2022-12-11T11:03:17;22.30;;;13.53;;
18693;SDS011;9477;51.414;10.362;2022-12-11T11:05:26;25.10;;;13.93;;
18693;SDS011;9477;51.414;10.362;2022-12-11T11:07:31;23.93;;;15.00;;
18693;SDS011;9477;51.414;10.362;2022-12-11T11:09:35;25.33;;;15.47;;
18693;SDS011;9477;51.414;10.362;2022-12-11T11:11:39;24.27;;;12.83;;
18693;SDS011;9477;51.414;10.362;2022-12-11T11:13:52;23.73;;;14.17;;
18693;SDS011;9477;51.414;10.362;2022-12-11T11:16:06;27.13;;;15.57;;
18693;SDS011;9477;51.414;10.362;2022-12-11T11:18:15;22.97;;;14.93;;
18693;SDS011;9477;51.414;10.362;2022-12-11T11:20:26;25.50;;;16.10;;
18693;SDS011;9477;51.414;10.362;2022-12-11T11:22:30;23.27;;;14.73;;
18693;SDS011;9477;51.414;10.362;2022-12-11T11:24:34;23.63;;;13.90;;
18693;SDS011;9477;51.414;10.362;2022-12-11T11:26:40;23.23;;;15.07;;
18693;SDS011;9477;51.414;10.362;2022-12-11T11:29:03;26.27;;;15.27;;
18693;SDS011;9477;51.414;10.362;2022-12-11T11:31:07;27.67;;;16.07;;
18693;SDS011;9477;51.414;10.362;2022-12-11T11:33:13;23.43;;;14.20;;
18693;SDS011;9477;51.414;10.362;2022-12-11T11:35:21;25.83;;;14.67;;
18693;SDS011;9477;51.414;10.362;2022-12-11T11:37:29;21.60;;;14.07;;
18693;SDS011;9477;51.414;10.362;2022-12-11T11:39:34;27.73;;;15.97;;
18693;SDS011;9477;51.414;10.362;2022-12-11T11:41:46;27.10;;;15.60;;
18693;SDS011;9477;51.414;10.362;2022-12-11T11:43:53;24.70;;;15.30;;
18693;SDS011;9477;51.414;10.362;2022-12-11T11:45:59;28.20;;;16.43;;
18693;SDS011;9477;51.414;10.362;2022-12-11T11:48:09;30.13;;;17.03;;
18693;SDS011;9477;51.414;10.362;2022-12-11T11:50:24;22.60;;;13.90;;
18693;SDS011;9477;51.414;10.362;2022-12-11T11:52:33;14.67;;;9.33;;
18693;SDS011;9477;51.414;10.362;2022-12-11T11:54:45;15.70;;;10.37;;
18693;SDS011;9477;51.414;10.362;2022-12-11T11:56:53;18.53;;;10.10;;
18693;SDS011;9477;51.414;10.362;2022-12-11T11:59:02;14.47;;;9.03;;
18693;SDS011;9477;51.414;10.362;2022-12-11T12:01:11;15.53;;;9.70;;
18693;SDS011;9477;51.414;10.362;2022-12-11T12:03:18;25.40;;;13.53;;
18693;SDS011;9477;51.414;10.362;2022-12-11T12:05:23;19.10;;;10.70;;
18693;SDS011;9477;51.414;10.362;2022-12-11T12:07:35;25.53;;;14.47;;
18693;SDS011;9477;51.414;10.362;2022-12-11T12:09:47;24.97;;;13.33;;
18693;SDS011;9477;51.414;10.362;2022-12-11T12:11:58;20.23;;;11.67;;
18693;SDS011;9477;51.414;10.362;2022-12-11T12:14:12;23.90;;;13.93;;
18693;SDS011;9477;51.414;10.362;2022-12-11T12:16:40;21.43;;;11.70;;